sensor_id;sensor_type;location;lat;lon;timestamp;P1;durP1;ratioP1;P2;durP2;ratioP2
15968;SDS011;8085;53.472;9.794;2022-10-31T00:01:24;33.27;;;18.50;;
15968;SDS011;8085;53.472;9.794;2022-10-31T00:03:53;27.53;;;17.40;;
15968;SDS011;8085;53.472;9.794;2022-10-31T00:06:20;34.47;;;17.97;;
15968;SDS011;8085;53.472;9.794;2022-10-31T00:08:47;34.53;;;18.63;;
15968;SDS011;8085;53.472;9.794;2022-10-31T00:11:18;36.87;;;18.60;;
15968;SDS011;8085;53.472;9.794;2022-10-31T00:13:45;31.60;;;18.97;;
15968;SDS011;8085;53.472;9.794;2022-10-31T00:16:15;34.17;;;18.87;;
15968;SDS011;8085;53.472;9.794;2022-10-31T00:18:43;31.53;;;18.50;;
15968;SDS011;8085;53.472;9.794;2022-10-31T00:21:13;30.83;;;19.13;;
15968;SDS011;8085;53.472;9.794;2022-10-31T00:23:40;37.33;;;20.10;;
15968;SDS011;8085;53.472;9.794;2022-10-31T00:26:08;33.20;;;18.40;;
15968;SDS011;8085;53.472;9.794;2022-10-31T00:28:35;28.47;;;19.07;;
15968;SDS011;8085;53.472;9.794;2022-10-31T00:31:04;35.97;;;20.00;;
15968;SDS011;8085;53.472;9.794;2022-10-31T00:33:34;32.77;;;17.80;;
15968;SDS011;8085;53.472;9.794;2022-10-31T00:36:09;34.47;;;18.83;;
15968;SDS011;8085;53.472;9.794;2022-10-31T00:38:37;30.60;;;16.07;;
15968;SDS011;8085;53.472;9.794;2022-10-31T00:41:04;31.63;;;17.83;;
15968;SDS011;8085;53.472;9.794;2022-10-31T00:43:31;32.87;;;19.37;;
15968;SDS011;8085;53.472;9.794;2022-10-31T00:45:58;33.83;;;19.73;;
15968;SDS011;8085;53.472;9.794;2022-10-31T00:48:25;31.60;;;20.23;;
15968;SDS011;8085;53.472;9.794;2022-10-31T00:50:53;32.33;;;19.83;;
15968;SDS011;8085;53.472;9.794;2022-10-31T00:53:20;35.63;;;20.87;;
15968;SDS011;8085;53.472;9.794;2022-10-31T00:55:47;32.73;;;20.37;;
15968;SDS011;8085;53.472;9.794;2022-10-31T00:58:14;39.77;;;21.50;;
15968;SDS011;8085;53.472;9.794;2022-10-31T01:00:40;34.37;;;21.33;;
15968;SDS011;8085;53.472;9.794;2022-10-31T01:03:07;38.23;;;22.53;;
15968;SDS011;8085;53.472;9.794;2022-10-31T01:05:34;42.07;;;23.10;;
15968;SDS011;8085;53.472;9.794;2022-10-31T01:08:02;43.80;;;22.93;;
15968;SDS011;8085;53.472;9.794;2022-10-31T01:10:29;37.43;;;23.97;;
15968;SDS011;8085;53.472;9.794;2022-10-31T01:12:56;43.73;;;22.57;;
15968;SDS011;8085;53.472;9.794;2022-10-31T01:15:23;42.40;;;23.27;;
15968;SDS011;8085;53.472;9.794;2022-10-31T01:17:49;38.90;;;23.57;;
15968;SDS011;8085;53.472;9.794;2022-10-31T01:20:16;46.10;;;24.67;;
15968;SDS011;8085;53.472;9.794;2022-10-31T01:22:43;41.80;;;24.13;;
15968;SDS011;8085;53.472;9.794;2022-10-31T01:25:12;41.93;;;23.60;;
15968;SDS011;8085;53.472;9.794;2022-10-31T01:27:38;42.17;;;24.77;;
15968;SDS011;8085;53.472;9.794;2022-10-31T01:30:05;46.47;;;24.70;;
15968;SDS011;8085;53.472;9.794;2022-10-31T01:32:33;41.63;;;24.43;;
15968;SDS011;8085;53.472;9.794;2022-10-31T01:35:00;41.23;;;24.97;;
15968;SDS011;8085;53.472;9.794;2022-10-31T01:37:27;40.23;;;24.40;;
15968;SDS011;8085;53.472;9.794;2022-10-31T01:39:53;42.47;;;25.87;;
15968;SDS011;8085;53.472;9.794;2022-10-31T01:42:22;48.03;;;27.37;;
15968;SDS011;8085;53.472;9.794;2022-10-31T01:44:54;49.73;;;29.37;;
15968;SDS011;8085;53.472;9.794;2022-10-31T01:47:28;48.40;;;28.30;;
15968;SDS011;8085;53.472;9.794;2022-10-31T01:50:03;53.27;;;29.67;;
15968;SDS011;8085;53.472;9.794;2022-10-31T01:52:36;57.13;;;31.67;;
15968;SDS011;8085;53.472;9.794;2022-10-31T01:55:06;58.40;;;32.80;;
15968;SDS011;8085;53.472;9.794;2022-10-31T01:57:38;62.70;;;31.53;;
15968;SDS011;8085;53.472;9.794;2022-10-31T02:00:09;58.17;;;31.20;;
15968;SDS011;8085;53.472;9.794;2022-10-31T02:02:37;65.13;;;32.33;;
15968;SDS011;8085;53.472;9.794;2022-10-31T02:05:05;58.67;;;32.20;;
15968;SDS011;8085;53.472;9.794;2022-10-31T02:07:36;63.57;;;33.67;;
15968;SDS011;8085;53.472;9.794;2022-10-31T02:10:07;62.10;;;33.03;;
15968;SDS011;8085;53.472;9.794;2022-10-31T02:12:34;64.77;;;34.13;;
15968;SDS011;8085;53.472;9.794;2022-10-31T02:15:04;60.83;;;33.73;;
15968;SDS011;8085;53.472;9.794;2022-10-31T02:17:31;54.37;;;32.13;;
15968;SDS011;8085;53.472;9.794;2022-10-31T02:20:01;61.07;;;32.03;;
15968;SDS011;8085;53.472;9.794;2022-10-31T02:22:37;55.73;;;31.13;;
15968;SDS011;8085;53.472;9.794;2022-10-31T02:25:20;60.40;;;32.67;;
15968;SDS011;8085;53.472;9.794;2022-10-31T02:28:06;59.87;;;33.03;;
15968;SDS011;8085;53.472;9.794;2022-10-31T02:33:48;60.37;;;34.20;;
15968;SDS011;8085;53.472;9.794;2022-10-31T02:36:20;63.77;;;34.97;;
15968;SDS011;8085;53.472;9.794;2022-10-31T02:38:51;66.87;;;34.10;;
15968;SDS011;8085;53.472;9.794;2022-10-31T02:41:30;72.87;;;35.53;;
15968;SDS011;8085;53.472;9.794;2022-10-31T02:44:03;70.23;;;36.50;;
15968;SDS011;8085;53.472;9.794;2022-10-31T02:46:37;66.47;;;36.13;;
15968;SDS011;8085;53.472;9.794;2022-10-31T02:49:12;70.77;;;35.90;;
15968;SDS011;8085;53.472;9.794;2022-10-31T02:51:47;68.27;;;36.53;;
15968;SDS011;8085;53.472;9.794;2022-10-31T02:54:18;68.60;;;36.77;;
15968;SDS011;8085;53.472;9.794;2022-10-31T02:56:47;68.03;;;36.73;;
15968;SDS011;8085;53.472;9.794;2022-10-31T02:59:16;66.80;;;37.80;;
15968;SDS011;8085;53.472;9.794;2022-10-31T03:05:07;74.00;;;36.93;;
15968;SDS011;8085;53.472;9.794;2022-10-31T03:07:42;76.77;;;38.33;;
15968;SDS011;8085;53.472;9.794;2022-10-31T03:10:16;74.10;;;38.60;;
15968;SDS011;8085;53.472;9.794;2022-10-31T03:12:49;82.37;;;39.03;;
15968;SDS011;8085;53.472;9.794;2022-10-31T03:15:26;79.10;;;40.13;;
15968;SDS011;8085;53.472;9.794;2022-10-31T03:17:59;85.93;;;38.93;;
15968;SDS011;8085;53.472;9.794;2022-10-31T03:20:30;78.50;;;38.50;;
15968;SDS011;8085;53.472;9.794;2022-10-31T03:23:01;77.13;;;40.50;;
15968;SDS011;8085;53.472;9.794;2022-10-31T03:25:30;78.33;;;39.93;;
15968;SDS011;8085;53.472;9.794;2022-10-31T03:28:00;82.93;;;41.73;;
15968;SDS011;8085;53.472;9.794;2022-10-31T03:30:28;84.93;;;41.47;;
15968;SDS011;8085;53.472;9.794;2022-10-31T03:33:00;84.03;;;40.47;;
15968;SDS011;8085;53.472;9.794;2022-10-31T03:35:31;82.13;;;41.70;;
15968;SDS011;8085;53.472;9.794;2022-10-31T03:37:59;86.37;;;41.70;;
15968;SDS011;8085;53.472;9.794;2022-10-31T03:40:28;88.47;;;42.43;;
15968;SDS011;8085;53.472;9.794;2022-10-31T03:42:57;82.37;;;42.90;;
15968;SDS011;8085;53.472;9.794;2022-10-31T03:45:30;86.07;;;41.27;;
15968;SDS011;8085;53.472;9.794;2022-10-31T03:47:59;92.93;;;42.17;;
15968;SDS011;8085;53.472;9.794;2022-10-31T03:50:27;92.87;;;43.83;;
15968;SDS011;8085;53.472;9.794;2022-10-31T03:53:00;96.90;;;44.47;;
15968;SDS011;8085;53.472;9.794;2022-10-31T03:55:33;91.97;;;44.10;;
15968;SDS011;8085;53.472;9.794;2022-10-31T03:58:06;102.90;;;46.37;;
15968;SDS011;8085;53.472;9.794;2022-10-31T04:00:37;102.87;;;45.07;;
15968;SDS011;8085;53.472;9.794;2022-10-31T04:03:09;96.77;;;44.33;;
15968;SDS011;8085;53.472;9.794;2022-10-31T04:05:37;94.90;;;46.80;;
15968;SDS011;8085;53.472;9.794;2022-10-31T04:08:07;104.93;;;46.27;;
15968;SDS011;8085;53.472;9.794;2022-10-31T04:10:38;102.10;;;45.50;;
15968;SDS011;8085;53.472;9.794;2022-10-31T04:13:07;98.70;;;45.57;;
15968;SDS011;8085;53.472;9.794;2022-10-31T04:15:37;107.20;;;46.10;;
15968;SDS011;8085;53.472;9.794;2022-10-31T04:18:08;109.00;;;49.13;;
15968;SDS011;8085;53.472;9.794;2022-10-31T04:20:35;128.70;;;49.80;;
15968;SDS011;8085;53.472;9.794;2022-10-31T04:23:04;126.90;;;51.30;;
15968;SDS011;8085;53.472;9.794;2022-10-31T04:25:34;120.07;;;50.13;;
15968;SDS011;8085;53.472;9.794;2022-10-31T04:28:01;130.60;;;51.27;;
15968;SDS011;8085;53.472;9.794;2022-10-31T04:30:27;140.03;;;53.87;;
15968;SDS011;8085;53.472;9.794;2022-10-31T04:32:54;136.43;;;53.63;;
15968;SDS011;8085;53.472;9.794;2022-10-31T04:35:22;141.33;;;54.07;;
15968;SDS011;8085;53.472;9.794;2022-10-31T04:37:49;139.83;;;53.47;;
15968;SDS011;8085;53.472;9.794;2022-10-31T04:40:16;139.37;;;53.80;;
15968;SDS011;8085;53.472;9.794;2022-10-31T04:42:43;149.13;;;53.80;;
15968;SDS011;8085;53.472;9.794;2022-10-31T04:45:09;144.23;;;52.80;;
15968;SDS011;8085;53.472;9.794;2022-10-31T04:47:36;163.60;;;53.67;;
15968;SDS011;8085;53.472;9.794;2022-10-31T04:50:03;156.60;;;54.23;;
15968;SDS011;8085;53.472;9.794;2022-10-31T04:52:32;156.83;;;52.23;;
15968;SDS011;8085;53.472;9.794;2022-10-31T04:55:04;148.03;;;50.57;;
15968;SDS011;8085;53.472;9.794;2022-10-31T04:57:31;139.30;;;50.30;;
15968;SDS011;8085;53.472;9.794;2022-10-31T04:59:58;149.97;;;51.83;;
15968;SDS011;8085;53.472;9.794;2022-10-31T05:02:25;156.00;;;52.50;;
15968;SDS011;8085;53.472;9.794;2022-10-31T05:04:52;142.80;;;51.93;;
15968;SDS011;8085;53.472;9.794;2022-10-31T05:07:18;137.60;;;51.03;;
15968;SDS011;8085;53.472;9.794;2022-10-31T05:09:47;137.70;;;50.07;;
15968;SDS011;8085;53.472;9.794;2022-10-31T05:12:13;144.43;;;49.53;;
15968;SDS011;8085;53.472;9.794;2022-10-31T05:14:40;140.77;;;49.43;;
15968;SDS011;8085;53.472;9.794;2022-10-31T05:17:07;132.47;;;49.93;;
15968;SDS011;8085;53.472;9.794;2022-10-31T05:19:34;133.70;;;48.43;;
15968;SDS011;8085;53.472;9.794;2022-10-31T05:22:00;133.00;;;47.53;;
15968;SDS011;8085;53.472;9.794;2022-10-31T05:24:27;128.87;;;47.70;;
15968;SDS011;8085;53.472;9.794;2022-10-31T05:26:55;128.00;;;46.53;;
15968;SDS011;8085;53.472;9.794;2022-10-31T05:29:22;117.57;;;46.47;;
15968;SDS011;8085;53.472;9.794;2022-10-31T05:31:49;124.20;;;45.33;;
15968;SDS011;8085;53.472;9.794;2022-10-31T05:34:15;131.03;;;47.77;;
15968;SDS011;8085;53.472;9.794;2022-10-31T05:36:42;128.57;;;47.43;;
15968;SDS011;8085;53.472;9.794;2022-10-31T05:39:09;120.87;;;47.33;;
15968;SDS011;8085;53.472;9.794;2022-10-31T05:41:36;122.77;;;45.40;;
15968;SDS011;8085;53.472;9.794;2022-10-31T05:44:04;130.27;;;45.40;;
15968;SDS011;8085;53.472;9.794;2022-10-31T05:46:31;124.20;;;45.50;;
15968;SDS011;8085;53.472;9.794;2022-10-31T05:48:58;124.40;;;47.10;;
15968;SDS011;8085;53.472;9.794;2022-10-31T05:51:25;134.60;;;47.17;;
15968;SDS011;8085;53.472;9.794;2022-10-31T05:53:51;127.33;;;44.73;;
15968;SDS011;8085;53.472;9.794;2022-10-31T05:56:18;117.10;;;44.90;;
15968;SDS011;8085;53.472;9.794;2022-10-31T05:58:45;115.13;;;45.00;;
15968;SDS011;8085;53.472;9.794;2022-10-31T06:01:13;119.27;;;44.23;;
15968;SDS011;8085;53.472;9.794;2022-10-31T06:03:40;120.20;;;45.80;;
15968;SDS011;8085;53.472;9.794;2022-10-31T06:06:07;115.37;;;44.97;;
15968;SDS011;8085;53.472;9.794;2022-10-31T06:08:34;121.03;;;46.00;;
15968;SDS011;8085;53.472;9.794;2022-10-31T06:11:00;110.87;;;43.70;;
15968;SDS011;8085;53.472;9.794;2022-10-31T06:13:27;114.83;;;43.93;;
15968;SDS011;8085;53.472;9.794;2022-10-31T06:15:54;129.07;;;44.57;;
15968;SDS011;8085;53.472;9.794;2022-10-31T06:18:22;118.77;;;46.30;;
15968;SDS011;8085;53.472;9.794;2022-10-31T06:20:49;117.30;;;45.67;;
15968;SDS011;8085;53.472;9.794;2022-10-31T06:23:16;121.37;;;45.43;;
15968;SDS011;8085;53.472;9.794;2022-10-31T06:25:43;118.63;;;44.87;;
15968;SDS011;8085;53.472;9.794;2022-10-31T06:28:14;109.40;;;43.20;;
15968;SDS011;8085;53.472;9.794;2022-10-31T06:30:40;117.97;;;45.00;;
15968;SDS011;8085;53.472;9.794;2022-10-31T06:33:07;108.87;;;42.67;;
15968;SDS011;8085;53.472;9.794;2022-10-31T06:35:35;106.13;;;43.33;;
15968;SDS011;8085;53.472;9.794;2022-10-31T06:38:02;117.57;;;43.27;;
15968;SDS011;8085;53.472;9.794;2022-10-31T06:40:29;101.50;;;42.93;;
15968;SDS011;8085;53.472;9.794;2022-10-31T06:42:56;109.03;;;41.87;;
15968;SDS011;8085;53.472;9.794;2022-10-31T06:45:23;107.20;;;42.23;;
15968;SDS011;8085;53.472;9.794;2022-10-31T06:47:51;108.47;;;41.53;;
15968;SDS011;8085;53.472;9.794;2022-10-31T06:50:18;101.17;;;41.30;;
15968;SDS011;8085;53.472;9.794;2022-10-31T06:52:50;100.57;;;41.20;;
15968;SDS011;8085;53.472;9.794;2022-10-31T06:55:17;105.67;;;42.67;;
15968;SDS011;8085;53.472;9.794;2022-10-31T06:57:49;113.53;;;43.30;;
15968;SDS011;8085;53.472;9.794;2022-10-31T07:00:16;105.43;;;41.77;;
15968;SDS011;8085;53.472;9.794;2022-10-31T07:02:43;102.87;;;41.50;;
15968;SDS011;8085;53.472;9.794;2022-10-31T07:05:18;105.27;;;42.97;;
15968;SDS011;8085;53.472;9.794;2022-10-31T07:07:45;109.27;;;41.37;;
15968;SDS011;8085;53.472;9.794;2022-10-31T07:10:13;105.07;;;43.07;;
15968;SDS011;8085;53.472;9.794;2022-10-31T07:12:40;98.43;;;40.60;;
15968;SDS011;8085;53.472;9.794;2022-10-31T07:15:07;97.70;;;41.40;;
15968;SDS011;8085;53.472;9.794;2022-10-31T07:17:34;101.23;;;41.40;;
15968;SDS011;8085;53.472;9.794;2022-10-31T07:20:01;110.00;;;41.20;;
15968;SDS011;8085;53.472;9.794;2022-10-31T07:22:32;102.60;;;41.33;;
15968;SDS011;8085;53.472;9.794;2022-10-31T07:24:59;109.07;;;41.60;;
15968;SDS011;8085;53.472;9.794;2022-10-31T07:27:27;107.10;;;42.57;;
15968;SDS011;8085;53.472;9.794;2022-10-31T07:29:54;92.43;;;39.93;;
15968;SDS011;8085;53.472;9.794;2022-10-31T07:32:21;106.27;;;42.90;;
15968;SDS011;8085;53.472;9.794;2022-10-31T07:34:48;104.57;;;40.93;;
15968;SDS011;8085;53.472;9.794;2022-10-31T07:37:15;104.90;;;41.33;;
15968;SDS011;8085;53.472;9.794;2022-10-31T07:39:42;101.83;;;40.57;;
15968;SDS011;8085;53.472;9.794;2022-10-31T07:42:08;112.40;;;43.07;;
15968;SDS011;8085;53.472;9.794;2022-10-31T07:44:36;115.20;;;41.90;;
15968;SDS011;8085;53.472;9.794;2022-10-31T07:47:03;108.97;;;42.80;;
15968;SDS011;8085;53.472;9.794;2022-10-31T07:49:30;112.27;;;42.40;;
15968;SDS011;8085;53.472;9.794;2022-10-31T07:51:57;101.57;;;41.90;;
15968;SDS011;8085;53.472;9.794;2022-10-31T07:54:23;115.53;;;42.17;;
15968;SDS011;8085;53.472;9.794;2022-10-31T07:56:50;111.57;;;43.57;;
15968;SDS011;8085;53.472;9.794;2022-10-31T07:59:17;107.47;;;43.13;;
15968;SDS011;8085;53.472;9.794;2022-10-31T08:01:45;130.47;;;44.20;;
15968;SDS011;8085;53.472;9.794;2022-10-31T08:04:12;119.17;;;43.80;;
15968;SDS011;8085;53.472;9.794;2022-10-31T08:06:39;126.57;;;44.70;;
15968;SDS011;8085;53.472;9.794;2022-10-31T08:09:05;117.53;;;43.33;;
15968;SDS011;8085;53.472;9.794;2022-10-31T08:11:32;109.13;;;43.17;;
15968;SDS011;8085;53.472;9.794;2022-10-31T08:13:59;127.17;;;45.93;;
15968;SDS011;8085;53.472;9.794;2022-10-31T08:16:26;123.07;;;44.93;;
15968;SDS011;8085;53.472;9.794;2022-10-31T08:18:54;115.97;;;44.07;;
15968;SDS011;8085;53.472;9.794;2022-10-31T08:21:21;123.77;;;45.00;;
15968;SDS011;8085;53.472;9.794;2022-10-31T08:23:48;123.20;;;45.10;;
15968;SDS011;8085;53.472;9.794;2022-10-31T08:26:15;113.77;;;43.17;;
15968;SDS011;8085;53.472;9.794;2022-10-31T08:28:42;117.90;;;43.40;;
15968;SDS011;8085;53.472;9.794;2022-10-31T08:31:08;116.87;;;46.10;;
15968;SDS011;8085;53.472;9.794;2022-10-31T08:33:35;113.93;;;43.27;;
15968;SDS011;8085;53.472;9.794;2022-10-31T08:36:04;114.23;;;44.60;;
15968;SDS011;8085;53.472;9.794;2022-10-31T08:38:31;125.50;;;46.03;;
15968;SDS011;8085;53.472;9.794;2022-10-31T08:40:58;128.37;;;46.60;;
15968;SDS011;8085;53.472;9.794;2022-10-31T08:43:24;122.17;;;44.03;;
15968;SDS011;8085;53.472;9.794;2022-10-31T08:45:51;105.60;;;41.07;;
15968;SDS011;8085;53.472;9.794;2022-10-31T08:48:19;103.13;;;41.73;;
15968;SDS011;8085;53.472;9.794;2022-10-31T08:50:46;99.53;;;41.17;;
15968;SDS011;8085;53.472;9.794;2022-10-31T08:53:15;82.53;;;37.90;;
15968;SDS011;8085;53.472;9.794;2022-10-31T08:55:43;75.47;;;34.40;;
15968;SDS011;8085;53.472;9.794;2022-10-31T08:58:12;84.47;;;37.03;;
15968;SDS011;8085;53.472;9.794;2022-10-31T09:00:40;87.37;;;36.93;;
15968;SDS011;8085;53.472;9.794;2022-10-31T09:03:09;76.77;;;37.07;;
15968;SDS011;8085;53.472;9.794;2022-10-31T09:05:37;93.07;;;35.93;;
15968;SDS011;8085;53.472;9.794;2022-10-31T09:08:05;68.80;;;33.50;;
15968;SDS011;8085;53.472;9.794;2022-10-31T09:10:35;75.77;;;35.47;;
15968;SDS011;8085;53.472;9.794;2022-10-31T09:13:04;80.97;;;34.33;;
15968;SDS011;8085;53.472;9.794;2022-10-31T09:15:32;82.77;;;33.60;;
15968;SDS011;8085;53.472;9.794;2022-10-31T09:18:02;80.80;;;35.03;;
15968;SDS011;8085;53.472;9.794;2022-10-31T09:20:30;84.83;;;35.03;;
15968;SDS011;8085;53.472;9.794;2022-10-31T09:22:58;74.93;;;34.30;;
15968;SDS011;8085;53.472;9.794;2022-10-31T09:25:26;70.70;;;32.87;;
15968;SDS011;8085;53.472;9.794;2022-10-31T09:27:56;84.27;;;35.10;;
15968;SDS011;8085;53.472;9.794;2022-10-31T09:30:23;59.43;;;29.23;;
15968;SDS011;8085;53.472;9.794;2022-10-31T09:32:54;81.03;;;35.67;;
15968;SDS011;8085;53.472;9.794;2022-10-31T09:35:21;73.00;;;32.77;;
15968;SDS011;8085;53.472;9.794;2022-10-31T09:37:53;77.97;;;33.30;;
15968;SDS011;8085;53.472;9.794;2022-10-31T09:40:20;76.67;;;33.50;;
15968;SDS011;8085;53.472;9.794;2022-10-31T09:42:51;74.93;;;33.47;;
15968;SDS011;8085;53.472;9.794;2022-10-31T09:45:25;73.87;;;31.93;;
15968;SDS011;8085;53.472;9.794;2022-10-31T09:48:00;72.47;;;31.50;;
15968;SDS011;8085;53.472;9.794;2022-10-31T09:50:37;63.27;;;30.70;;
15968;SDS011;8085;53.472;9.794;2022-10-31T09:53:08;61.07;;;29.73;;
15968;SDS011;8085;53.472;9.794;2022-10-31T09:55:40;55.80;;;27.37;;
15968;SDS011;8085;53.472;9.794;2022-10-31T09:58:08;52.50;;;26.27;;
15968;SDS011;8085;53.472;9.794;2022-10-31T10:00:43;44.33;;;22.27;;
15968;SDS011;8085;53.472;9.794;2022-10-31T10:03:12;33.57;;;18.10;;
15968;SDS011;8085;53.472;9.794;2022-10-31T10:05:50;50.70;;;25.80;;
15968;SDS011;8085;53.472;9.794;2022-10-31T10:08:20;48.83;;;24.60;;
15968;SDS011;8085;53.472;9.794;2022-10-31T10:10:51;50.97;;;25.63;;
15968;SDS011;8085;53.472;9.794;2022-10-31T10:13:28;53.20;;;26.77;;
15968;SDS011;8085;53.472;9.794;2022-10-31T10:16:12;52.07;;;28.23;;
15968;SDS011;8085;53.472;9.794;2022-10-31T10:18:55;57.17;;;27.77;;
15968;SDS011;8085;53.472;9.794;2022-10-31T10:21:32;49.23;;;26.80;;
15968;SDS011;8085;53.472;9.794;2022-10-31T10:24:09;50.33;;;27.10;;
15968;SDS011;8085;53.472;9.794;2022-10-31T10:26:48;52.77;;;25.33;;
15968;SDS011;8085;53.472;9.794;2022-10-31T10:29:27;59.23;;;27.37;;
15968;SDS011;8085;53.472;9.794;2022-10-31T10:32:01;50.53;;;24.10;;
15968;SDS011;8085;53.472;9.794;2022-10-31T10:34:37;41.33;;;22.30;;
15968;SDS011;8085;53.472;9.794;2022-10-31T10:37:13;53.70;;;25.23;;
15968;SDS011;8085;53.472;9.794;2022-10-31T10:39:48;44.93;;;24.10;;
15968;SDS011;8085;53.472;9.794;2022-10-31T10:42:17;49.73;;;24.47;;
15968;SDS011;8085;53.472;9.794;2022-10-31T10:45:09;50.00;;;25.00;;
15968;SDS011;8085;53.472;9.794;2022-10-31T10:48:00;48.77;;;24.73;;
15968;SDS011;8085;53.472;9.794;2022-10-31T10:50:35;51.70;;;25.53;;
15968;SDS011;8085;53.472;9.794;2022-10-31T10:53:09;50.27;;;23.53;;
15968;SDS011;8085;53.472;9.794;2022-10-31T10:55:57;43.80;;;20.97;;
15968;SDS011;8085;53.472;9.794;2022-10-31T10:58:28;48.37;;;24.80;;
15968;SDS011;8085;53.472;9.794;2022-10-31T11:00:55;50.17;;;24.77;;
15968;SDS011;8085;53.472;9.794;2022-10-31T11:03:23;43.27;;;22.77;;
15968;SDS011;8085;53.472;9.794;2022-10-31T11:05:50;44.83;;;21.10;;
15968;SDS011;8085;53.472;9.794;2022-10-31T11:08:23;41.63;;;20.33;;
15968;SDS011;8085;53.472;9.794;2022-10-31T11:10:56;39.10;;;19.17;;
15968;SDS011;8085;53.472;9.794;2022-10-31T11:13:24;30.70;;;16.83;;
15968;SDS011;8085;53.472;9.794;2022-10-31T11:15:56;33.40;;;16.30;;
15968;SDS011;8085;53.472;9.794;2022-10-31T11:18:27;34.47;;;19.23;;
15968;SDS011;8085;53.472;9.794;2022-10-31T11:20:57;39.40;;;19.77;;
15968;SDS011;8085;53.472;9.794;2022-10-31T11:23:25;47.13;;;22.43;;
15968;SDS011;8085;53.472;9.794;2022-10-31T11:25:54;42.17;;;23.33;;
15968;SDS011;8085;53.472;9.794;2022-10-31T11:28:23;41.83;;;23.23;;
15968;SDS011;8085;53.472;9.794;2022-10-31T11:30:51;37.03;;;20.53;;
15968;SDS011;8085;53.472;9.794;2022-10-31T11:33:22;36.90;;;20.03;;
15968;SDS011;8085;53.472;9.794;2022-10-31T11:35:54;35.73;;;18.30;;
15968;SDS011;8085;53.472;9.794;2022-10-31T11:38:22;30.47;;;17.57;;
15968;SDS011;8085;53.472;9.794;2022-10-31T11:40:51;28.40;;;16.33;;
15968;SDS011;8085;53.472;9.794;2022-10-31T11:43:20;25.67;;;15.53;;
15968;SDS011;8085;53.472;9.794;2022-10-31T11:45:48;23.10;;;13.73;;
15968;SDS011;8085;53.472;9.794;2022-10-31T11:48:16;26.73;;;16.37;;
15968;SDS011;8085;53.472;9.794;2022-10-31T11:50:47;23.97;;;13.50;;
15968;SDS011;8085;53.472;9.794;2022-10-31T11:53:17;27.80;;;15.77;;
15968;SDS011;8085;53.472;9.794;2022-10-31T11:55:46;25.53;;;14.53;;
15968;SDS011;8085;53.472;9.794;2022-10-31T11:58:20;30.40;;;16.10;;
15968;SDS011;8085;53.472;9.794;2022-10-31T12:00:49;25.03;;;14.67;;
15968;SDS011;8085;53.472;9.794;2022-10-31T12:03:26;26.53;;;15.07;;
15968;SDS011;8085;53.472;9.794;2022-10-31T12:06:05;25.07;;;15.80;;
15968;SDS011;8085;53.472;9.794;2022-10-31T12:08:38;28.10;;;15.00;;
15968;SDS011;8085;53.472;9.794;2022-10-31T12:11:10;27.13;;;15.37;;
15968;SDS011;8085;53.472;9.794;2022-10-31T12:13:48;27.70;;;17.17;;
15968;SDS011;8085;53.472;9.794;2022-10-31T12:16:25;29.80;;;15.70;;
15968;SDS011;8085;53.472;9.794;2022-10-31T12:18:59;25.60;;;15.40;;
15968;SDS011;8085;53.472;9.794;2022-10-31T12:21:34;19.93;;;13.70;;
15968;SDS011;8085;53.472;9.794;2022-10-31T12:24:25;23.97;;;14.03;;
15968;SDS011;8085;53.472;9.794;2022-10-31T12:27:04;23.90;;;13.80;;
15968;SDS011;8085;53.472;9.794;2022-10-31T12:29:42;20.90;;;12.83;;
15968;SDS011;8085;53.472;9.794;2022-10-31T12:32:29;22.60;;;14.00;;
15968;SDS011;8085;53.472;9.794;2022-10-31T12:35:09;24.10;;;13.70;;
15968;SDS011;8085;53.472;9.794;2022-10-31T12:37:52;23.63;;;13.77;;
15968;SDS011;8085;53.472;9.794;2022-10-31T12:40:36;21.40;;;12.83;;
15968;SDS011;8085;53.472;9.794;2022-10-31T12:43:19;23.50;;;13.40;;
15968;SDS011;8085;53.472;9.794;2022-10-31T12:45:58;22.10;;;13.47;;
15968;SDS011;8085;53.472;9.794;2022-10-31T12:51:33;24.20;;;14.23;;
15968;SDS011;8085;53.472;9.794;2022-10-31T12:54:15;21.70;;;13.63;;
15968;SDS011;8085;53.472;9.794;2022-10-31T12:56:54;25.33;;;14.47;;
15968;SDS011;8085;53.472;9.794;2022-10-31T12:59:28;18.30;;;11.10;;
15968;SDS011;8085;53.472;9.794;2022-10-31T13:01:59;21.53;;;13.73;;
15968;SDS011;8085;53.472;9.794;2022-10-31T13:04:36;25.10;;;13.13;;
15968;SDS011;8085;53.472;9.794;2022-10-31T13:07:11;19.77;;;11.43;;
15968;SDS011;8085;53.472;9.794;2022-10-31T13:09:42;25.80;;;13.00;;
15968;SDS011;8085;53.472;9.794;2022-10-31T13:12:21;20.60;;;13.43;;
15968;SDS011;8085;53.472;9.794;2022-10-31T13:14:51;22.20;;;13.80;;
15968;SDS011;8085;53.472;9.794;2022-10-31T13:17:22;21.57;;;12.73;;
15968;SDS011;8085;53.472;9.794;2022-10-31T13:19:55;21.47;;;11.87;;
15968;SDS011;8085;53.472;9.794;2022-10-31T13:22:35;25.47;;;13.97;;
15968;SDS011;8085;53.472;9.794;2022-10-31T13:25:05;24.93;;;14.20;;
15968;SDS011;8085;53.472;9.794;2022-10-31T13:27:44;21.73;;;13.33;;
15968;SDS011;8085;53.472;9.794;2022-10-31T13:30:16;26.20;;;13.20;;
15968;SDS011;8085;53.472;9.794;2022-10-31T13:32:46;24.27;;;13.40;;
15968;SDS011;8085;53.472;9.794;2022-10-31T13:35:20;22.67;;;14.33;;
15968;SDS011;8085;53.472;9.794;2022-10-31T13:37:56;30.07;;;14.10;;
15968;SDS011;8085;53.472;9.794;2022-10-31T13:40:35;25.43;;;14.13;;
15968;SDS011;8085;53.472;9.794;2022-10-31T13:43:12;25.03;;;14.50;;
15968;SDS011;8085;53.472;9.794;2022-10-31T13:45:48;21.70;;;15.27;;
15968;SDS011;8085;53.472;9.794;2022-10-31T13:51:05;30.30;;;16.13;;
15968;SDS011;8085;53.472;9.794;2022-10-31T13:56:25;25.67;;;15.63;;
15968;SDS011;8085;53.472;9.794;2022-10-31T13:59:00;26.17;;;15.33;;
15968;SDS011;8085;53.472;9.794;2022-10-31T14:01:45;25.67;;;16.23;;
15968;SDS011;8085;53.472;9.794;2022-10-31T14:04:14;30.20;;;18.83;;
15968;SDS011;8085;53.472;9.794;2022-10-31T14:06:44;33.73;;;18.47;;
15968;SDS011;8085;53.472;9.794;2022-10-31T14:09:25;35.37;;;20.60;;
15968;SDS011;8085;53.472;9.794;2022-10-31T14:11:56;33.53;;;18.30;;
15968;SDS011;8085;53.472;9.794;2022-10-31T14:14:29;35.37;;;19.47;;
15968;SDS011;8085;53.472;9.794;2022-10-31T14:16:59;31.33;;;17.93;;
15968;SDS011;8085;53.472;9.794;2022-10-31T14:19:27;31.40;;;19.17;;
15968;SDS011;8085;53.472;9.794;2022-10-31T14:21:54;35.20;;;20.00;;
15968;SDS011;8085;53.472;9.794;2022-10-31T14:24:31;31.50;;;19.67;;
15968;SDS011;8085;53.472;9.794;2022-10-31T14:27:00;31.00;;;19.57;;
15968;SDS011;8085;53.472;9.794;2022-10-31T14:29:31;33.93;;;18.57;;
15968;SDS011;8085;53.472;9.794;2022-10-31T14:32:01;32.80;;;18.80;;
15968;SDS011;8085;53.472;9.794;2022-10-31T14:34:36;40.57;;;20.30;;
15968;SDS011;8085;53.472;9.794;2022-10-31T14:37:13;28.37;;;18.10;;
15968;SDS011;8085;53.472;9.794;2022-10-31T14:42:36;31.83;;;16.57;;
15968;SDS011;8085;53.472;9.794;2022-10-31T14:45:21;16.40;;;10.43;;
15968;SDS011;8085;53.472;9.794;2022-10-31T14:47:57;16.67;;;9.97;;
15968;SDS011;8085;53.472;9.794;2022-10-31T14:50:36;18.43;;;9.50;;
15968;SDS011;8085;53.472;9.794;2022-10-31T14:53:10;12.77;;;8.00;;
15968;SDS011;8085;53.472;9.794;2022-10-31T14:55:42;11.80;;;7.57;;
15968;SDS011;8085;53.472;9.794;2022-10-31T14:58:15;11.23;;;7.40;;
15968;SDS011;8085;53.472;9.794;2022-10-31T15:00:46;13.00;;;7.57;;
15968;SDS011;8085;53.472;9.794;2022-10-31T15:03:14;15.03;;;7.77;;
15968;SDS011;8085;53.472;9.794;2022-10-31T15:05:45;14.43;;;7.83;;
15968;SDS011;8085;53.472;9.794;2022-10-31T15:08:30;17.70;;;8.33;;